createdAt,value
2022-10-28T00:00:43.704Z,16.00
2022-10-28T00:01:43.697Z,15.50
2022-10-28T00:02:43.626Z,15.90
2022-10-28T00:03:43.632Z,15.90
2022-10-28T00:04:43.582Z,15.70
2022-10-28T00:05:43.579Z,15.60
2022-10-28T00:06:43.646Z,15.90
2022-10-28T00:07:43.559Z,15.60
2022-10-28T00:08:43.543Z,15.80
2022-10-28T00:09:43.533Z,15.90
2022-10-28T00:10:43.516Z,15.70
2022-10-28T00:11:43.546Z,15.10
2022-10-28T00:12:43.493Z,15.70
2022-10-28T00:13:43.473Z,15.80
2022-10-28T00:14:43.467Z,15.40
2022-10-28T00:15:43.451Z,15.90
2022-10-28T00:16:43.537Z,15.90
2022-10-28T00:17:43.463Z,15.40
2022-10-28T00:18:44.192Z,15.60
2022-10-28T00:19:43.439Z,15.60
2022-10-28T00:20:43.402Z,15.00
2022-10-28T00:21:43.429Z,15.60
2022-10-28T00:22:43.377Z,15.80
2022-10-28T00:23:43.388Z,15.60
2022-10-28T00:24:43.415Z,14.80
2022-10-28T00:25:43.356Z,16.10
2022-10-28T00:26:43.373Z,15.80
2022-10-28T00:27:43.334Z,16.00
2022-10-28T00:28:43.332Z,16.50
2022-10-28T00:29:43.313Z,17.00
2022-10-28T00:30:44.191Z,17.50
2022-10-28T00:31:43.341Z,17.30
2022-10-28T00:32:43.273Z,17.30
2022-10-28T00:33:43.291Z,17.70
2022-10-28T00:34:43.264Z,18.10
2022-10-28T00:35:43.252Z,17.90
2022-10-28T00:36:43.212Z,18.10
2022-10-28T00:37:43.209Z,18.50
2022-10-28T00:38:43.234Z,17.70
2022-10-28T00:39:43.177Z,18.00
2022-10-28T00:40:43.841Z,18.60
2022-10-28T00:41:43.211Z,18.80
2022-10-28T00:42:43.200Z,18.90
2022-10-28T00:43:43.188Z,18.70
2022-10-28T00:44:43.122Z,19.20
2022-10-28T00:45:43.116Z,18.50
2022-10-28T00:46:43.108Z,19.20
2022-10-28T00:47:43.135Z,19.30
2022-10-28T00:48:43.121Z,18.90
2022-10-28T00:49:43.073Z,18.30
2022-10-28T00:50:43.053Z,19.90
2022-10-28T00:51:43.052Z,19.00
2022-10-28T00:52:43.049Z,19.30
2022-10-28T00:53:43.062Z,19.30
2022-10-28T00:54:43.721Z,19.20
2022-10-28T00:55:43.166Z,19.60
2022-10-28T00:56:42.987Z,17.90
2022-10-28T00:57:42.977Z,19.00
2022-10-28T00:58:43.002Z,19.60
2022-10-28T00:59:43.012Z,18.70
2022-10-28T01:00:42.945Z,19.10
2022-10-28T01:01:43.031Z,19.30
2022-10-28T01:02:42.944Z,19.30
2022-10-28T01:03:42.908Z,18.60
2022-10-28T01:04:42.965Z,18.50
2022-10-28T01:05:42.926Z,18.60
2022-10-28T01:06:43.748Z,19.30
2022-10-28T01:07:42.866Z,18.80
2022-10-28T01:08:42.898Z,19.00
2022-10-28T01:09:42.878Z,18.50
2022-10-28T01:10:42.875Z,19.90
2022-10-28T01:11:42.840Z,19.50
2022-10-28T01:12:42.858Z,19.00
2022-10-28T01:13:42.799Z,18.80
2022-10-28T01:14:42.778Z,18.90
2022-10-28T01:15:42.809Z,19.10
2022-10-28T01:16:42.788Z,18.70
2022-10-28T01:17:42.779Z,18.70
2022-10-28T01:18:42.774Z,18.70
2022-10-28T01:19:42.776Z,18.60
2022-10-28T01:20:44.262Z,18.10
2022-10-28T01:21:42.740Z,18.50
2022-10-28T01:22:42.698Z,18.70
2022-10-28T01:23:42.715Z,17.40
2022-10-28T01:24:42.674Z,18.30
2022-10-28T01:25:42.706Z,17.30
2022-10-28T01:26:42.648Z,17.60
2022-10-28T01:27:42.644Z,17.50
2022-10-28T01:28:42.620Z,17.20
2022-10-28T01:29:42.660Z,17.40
2022-10-28T01:30:42.641Z,17.60
2022-10-28T01:31:42.612Z,17.00
2022-10-28T01:32:42.587Z,17.20
2022-10-28T01:33:42.568Z,17.40
2022-10-28T01:34:42.556Z,16.70
2022-10-28T01:35:42.554Z,16.70
2022-10-28T01:36:42.577Z,16.80
2022-10-28T01:37:42.530Z,16.90
2022-10-28T01:38:42.508Z,16.60
2022-10-28T01:39:42.505Z,17.10
2022-10-28T01:40:42.529Z,17.10
2022-10-28T01:41:42.528Z,16.70
2022-10-28T01:42:42.458Z,17.00
2022-10-28T01:43:42.467Z,15.90
2022-10-28T01:44:42.439Z,16.10
2022-10-28T01:45:42.464Z,16.40
2022-10-28T01:46:42.427Z,15.90
2022-10-28T01:47:42.420Z,16.00
2022-10-28T01:48:42.396Z,16.50
2022-10-28T01:49:42.410Z,16.00
2022-10-28T01:50:42.455Z,15.60
2022-10-28T01:51:42.422Z,16.50
2022-10-28T01:52:42.345Z,16.40
2022-10-28T01:53:42.341Z,16.00
2022-10-28T01:54:42.606Z,16.50
2022-10-28T01:55:42.331Z,16.50
2022-10-28T01:56:42.335Z,17.20
2022-10-28T01:57:42.300Z,16.90
2022-10-28T01:58:42.356Z,16.10
2022-10-28T01:59:42.301Z,16.70
2022-10-28T02:00:42.306Z,17.00
2022-10-28T02:01:42.693Z,16.60
2022-10-28T02:02:42.250Z,17.00
2022-10-28T02:03:42.229Z,17.20
2022-10-28T02:04:42.209Z,17.10
2022-10-28T02:05:42.212Z,17.50
2022-10-28T02:06:42.242Z,17.30
2022-10-28T02:07:42.187Z,17.50
2022-10-28T02:08:42.184Z,17.10
2022-10-28T02:09:42.176Z,17.10
2022-10-28T02:10:42.147Z,18.00
2022-10-28T02:11:42.175Z,17.30
2022-10-28T02:12:42.123Z,17.60
2022-10-28T02:13:42.116Z,18.50
2022-10-28T02:14:42.139Z,17.70
2022-10-28T02:15:42.108Z,18.80
2022-10-28T02:16:42.123Z,18.90
2022-10-28T02:17:42.072Z,18.20
2022-10-28T02:18:42.068Z,19.10
2022-10-28T02:19:42.053Z,19.20
2022-10-28T02:20:42.030Z,19.50
2022-10-28T02:21:42.061Z,20.10
2022-10-28T02:22:42.086Z,19.60
2022-10-28T02:23:41.995Z,20.40
2022-10-28T02:24:42.000Z,20.30
2022-10-28T02:25:42.015Z,20.50
2022-10-28T02:26:41.975Z,20.60
2022-10-28T02:27:42.013Z,20.40
2022-10-28T02:28:42.042Z,20.40
2022-10-28T02:29:42.044Z,20.90
2022-10-28T02:30:41.923Z,21.40
2022-10-28T02:31:41.964Z,21.30
2022-10-28T02:32:41.909Z,20.40
2022-10-28T02:33:41.911Z,20.70
2022-10-28T02:34:41.869Z,20.60
2022-10-28T02:35:41.893Z,20.80
2022-10-28T02:36:41.853Z,21.20
2022-10-28T02:37:41.867Z,21.10
2022-10-28T02:38:42.123Z,21.10
2022-10-28T02:39:41.859Z,21.60
2022-10-28T02:40:41.869Z,22.10
2022-10-28T02:41:41.798Z,21.60
2022-10-28T02:42:41.775Z,20.80
2022-10-28T02:43:41.801Z,22.00
2022-10-28T02:44:41.793Z,21.50
2022-10-28T02:45:41.781Z,22.30
2022-10-28T02:46:41.764Z,21.10
2022-10-28T02:47:41.737Z,20.90
2022-10-28T02:48:41.723Z,21.50
2022-10-28T02:49:41.864Z,21.60
2022-10-28T02:50:41.682Z,21.60
2022-10-28T02:51:41.690Z,21.30
2022-10-28T02:52:41.667Z,22.10
2022-10-28T02:53:41.702Z,21.50
2022-10-28T02:54:41.695Z,22.50
2022-10-28T02:55:41.639Z,22.10
2022-10-28T02:56:41.624Z,22.30
2022-10-28T02:57:41.699Z,22.40
2022-10-28T02:58:41.626Z,22.50
2022-10-28T02:59:41.623Z,22.30
2022-10-28T03:00:41.617Z,22.00
2022-10-28T03:01:41.842Z,23.10
2022-10-28T03:02:41.556Z,23.10
2022-10-28T03:03:41.582Z,22.80
2022-10-28T03:04:41.556Z,22.90
2022-10-28T03:05:41.579Z,22.30
2022-10-28T03:06:41.549Z,22.90
2022-10-28T03:07:41.530Z,23.10
2022-10-28T03:08:41.508Z,23.00
2022-10-28T03:09:41.498Z,23.40
2022-10-28T03:10:41.527Z,23.30
2022-10-28T03:11:41.452Z,23.70
2022-10-28T03:12:41.437Z,24.00
2022-10-28T03:13:41.438Z,24.30
2022-10-28T03:14:41.422Z,25.20
2022-10-28T03:15:41.495Z,25.50
2022-10-28T03:16:41.404Z,24.60
2022-10-28T03:17:41.405Z,24.00
2022-10-28T03:18:41.408Z,24.70
2022-10-28T03:19:41.364Z,25.40
2022-10-28T03:20:41.384Z,24.80
2022-10-28T03:21:41.360Z,24.80
2022-10-28T03:22:41.324Z,24.70
2022-10-28T03:23:41.319Z,24.70
2022-10-28T03:24:41.300Z,24.50
2022-10-28T03:25:41.337Z,25.40
2022-10-28T03:26:41.576Z,24.80
2022-10-28T03:27:41.276Z,26.20
2022-10-28T03:28:41.324Z,25.40
2022-10-28T03:29:44.914Z,25.40
2022-10-28T03:30:41.286Z,25.90
2022-10-28T03:31:41.330Z,26.20
2022-10-28T03:32:41.252Z,27.20
2022-10-28T03:33:41.210Z,26.60
2022-10-28T03:34:41.239Z,26.60
2022-10-28T03:35:41.181Z,26.00
2022-10-28T03:36:41.169Z,26.20
2022-10-28T03:37:41.182Z,27.30
2022-10-28T03:38:41.183Z,27.80
2022-10-28T03:39:41.210Z,31.60
2022-10-28T03:40:41.113Z,35.20
2022-10-28T03:41:41.127Z,38.20
2022-10-28T03:42:41.305Z,42.90
2022-10-28T03:43:41.098Z,43.40
2022-10-28T03:44:41.075Z,42.80
2022-10-28T03:45:41.102Z,45.10
2022-10-28T03:46:41.090Z,45.90
2022-10-28T03:47:41.075Z,43.70
2022-10-28T03:48:41.081Z,42.60
2022-10-28T03:49:41.045Z,42.50
2022-10-28T03:50:41.078Z,40.60
2022-10-28T03:51:41.042Z,40.30
2022-10-28T03:52:40.985Z,38.60
2022-10-28T03:53:40.982Z,36.70
2022-10-28T03:54:40.993Z,37.50
2022-10-28T03:55:40.982Z,34.40
2022-10-28T03:56:40.940Z,32.90
2022-10-28T03:57:40.923Z,34.80
2022-10-28T03:58:41.454Z,32.50
2022-10-28T03:59:40.913Z,33.00
2022-10-28T04:00:40.926Z,33.30
2022-10-28T04:01:41.113Z,32.00
2022-10-28T04:02:40.904Z,32.80
2022-10-28T04:03:40.880Z,32.20
2022-10-28T04:04:40.854Z,31.80
2022-10-28T04:05:40.873Z,32.30
2022-10-28T04:06:41.805Z,31.00
2022-10-28T04:07:40.866Z,34.00
2022-10-28T04:08:40.802Z,31.80
2022-10-28T04:09:42.668Z,30.90
2022-10-28T04:10:44.895Z,35.10
2022-10-28T04:11:40.772Z,32.30
2022-10-28T04:12:40.759Z,33.60
2022-10-28T04:13:40.758Z,31.80
2022-10-28T04:14:40.744Z,32.80
2022-10-28T04:15:40.744Z,31.50
2022-10-28T04:16:40.749Z,32.80
2022-10-28T04:17:40.699Z,32.40
2022-10-28T04:18:40.698Z,32.10
2022-10-28T04:19:40.685Z,32.50
2022-10-28T04:20:40.732Z,32.40
2022-10-28T04:21:40.945Z,32.00
2022-10-28T04:22:40.648Z,32.80
2022-10-28T04:23:40.649Z,31.50
2022-10-28T04:24:40.631Z,31.10
2022-10-28T04:25:40.618Z,29.30
2022-10-28T04:26:40.596Z,31.70
2022-10-28T04:27:40.652Z,31.30
2022-10-28T04:28:40.597Z,30.80
2022-10-28T04:29:40.559Z,31.00
2022-10-28T04:30:40.565Z,30.50
2022-10-28T04:31:40.587Z,30.40
2022-10-28T04:32:40.529Z,32.30
2022-10-28T04:33:40.515Z,31.50
2022-10-28T04:34:40.510Z,32.20
2022-10-28T04:35:40.504Z,31.10
2022-10-28T04:36:40.556Z,31.90
2022-10-28T04:37:40.553Z,32.20
2022-10-28T04:38:40.472Z,30.60
2022-10-28T04:39:40.453Z,31.90
2022-10-28T04:40:40.445Z,30.90
2022-10-28T04:41:40.445Z,32.00
2022-10-28T04:42:40.492Z,30.20
2022-10-28T04:43:40.414Z,32.80
2022-10-28T04:44:40.396Z,34.20
2022-10-28T04:45:40.381Z,36.10
2022-10-28T04:46:40.384Z,34.30
2022-10-28T04:47:40.430Z,34.80
2022-10-28T04:48:40.353Z,34.50
2022-10-28T04:49:40.392Z,34.20
2022-10-28T04:50:40.335Z,34.40
2022-10-28T04:51:40.606Z,35.90
2022-10-28T04:52:40.369Z,35.30
2022-10-28T04:53:40.333Z,36.30
2022-10-28T04:54:40.305Z,36.10
2022-10-28T04:55:40.306Z,35.90
2022-10-28T04:56:40.270Z,36.10
2022-10-28T04:57:40.252Z,32.90
2022-10-28T04:58:40.277Z,34.40
2022-10-28T04:59:40.249Z,35.20
2022-10-28T05:00:40.228Z,34.90
2022-10-28T05:01:40.907Z,34.00
2022-10-28T05:02:45.161Z,33.50
2022-10-28T05:03:40.229Z,36.20
2022-10-28T05:04:40.253Z,33.40
2022-10-28T05:05:40.189Z,32.50
2022-10-28T05:06:40.237Z,37.10
2022-10-28T05:07:40.136Z,34.80
2022-10-28T05:08:40.165Z,35.40
2022-10-28T05:09:40.168Z,37.10
2022-10-28T05:10:40.116Z,37.60
2022-10-28T05:11:40.120Z,34.00
2022-10-28T05:12:40.106Z,36.90
2022-10-28T05:13:40.120Z,36.60
2022-10-28T05:14:40.083Z,40.10
2022-10-28T05:15:40.051Z,38.60
2022-10-28T05:16:40.112Z,37.50
2022-10-28T05:17:40.078Z,38.10
2022-10-28T05:18:40.170Z,38.30
2022-10-28T05:19:40.014Z,41.30
2022-10-28T05:20:40.032Z,40.10
2022-10-28T05:21:39.971Z,41.70
2022-10-28T05:22:39.989Z,40.30
2022-10-28T05:23:39.995Z,39.20
2022-10-28T05:24:39.968Z,38.70
2022-10-28T05:25:39.975Z,43.40
2022-10-28T05:26:39.923Z,41.30
2022-10-28T05:27:39.912Z,43.30
2022-10-28T05:28:45.885Z,38.60
2022-10-28T05:29:45.895Z,40.00
2022-10-28T05:30:45.875Z,39.70
2022-10-28T05:31:39.921Z,43.60
2022-10-28T05:32:39.863Z,38.20
2022-10-28T05:33:39.860Z,40.40
2022-10-28T05:34:39.876Z,41.00
2022-10-28T05:35:39.835Z,40.70
2022-10-28T05:36:39.809Z,43.40
2022-10-28T05:37:39.851Z,42.40
2022-10-28T05:38:39.793Z,43.30
2022-10-28T05:39:39.789Z,39.70
2022-10-28T05:40:39.762Z,42.70
2022-10-28T05:41:39.793Z,43.60
2022-10-28T05:42:40.378Z,39.90
2022-10-28T05:43:39.728Z,43.00
2022-10-28T05:44:39.751Z,38.90
2022-10-28T05:45:39.709Z,39.70
2022-10-28T05:46:39.729Z,44.00
2022-10-28T05:47:40.193Z,46.60
2022-10-28T05:48:39.670Z,53.40
2022-10-28T05:49:40.367Z,51.90
2022-10-28T05:50:39.670Z,48.80
2022-10-28T05:51:39.694Z,55.70
2022-10-28T05:52:39.638Z,50.60
2022-10-28T05:53:39.694Z,43.80
2022-10-28T05:54:39.621Z,45.20
2022-10-28T05:55:42.682Z,42.40
2022-10-28T05:56:39.619Z,40.90
2022-10-28T05:57:39.573Z,40.30
2022-10-28T05:58:39.688Z,38.90
2022-10-28T05:59:39.555Z,37.60
2022-10-28T06:00:39.542Z,38.80
2022-10-28T06:01:39.576Z,39.50
2022-10-28T06:02:39.546Z,39.40
2022-10-28T06:03:39.574Z,40.10
2022-10-28T06:04:39.497Z,39.40
2022-10-28T06:05:39.485Z,40.00
2022-10-28T06:06:39.476Z,39.70
2022-10-28T06:07:39.535Z,37.60
2022-10-28T06:08:39.458Z,39.90
2022-10-28T06:09:39.437Z,36.80
2022-10-28T06:10:39.432Z,38.00
2022-10-28T06:11:37.910Z,36.60
2022-10-28T06:12:37.874Z,39.40
2022-10-28T06:13:37.865Z,35.00
2022-10-28T06:14:37.886Z,34.60
2022-10-28T06:15:37.861Z,36.80
2022-10-28T06:16:37.835Z,38.00
2022-10-28T06:17:37.811Z,36.00
2022-10-28T06:18:38.361Z,37.90
2022-10-28T06:19:37.824Z,39.10
2022-10-28T06:20:37.798Z,34.50
2022-10-28T06:21:37.776Z,38.00
2022-10-28T06:22:37.805Z,34.20
2022-10-28T06:23:37.749Z,37.00
2022-10-28T06:24:37.820Z,33.90
2022-10-28T06:25:38.718Z,35.50
2022-10-28T06:26:37.763Z,34.90
2022-10-28T06:27:37.712Z,35.00
2022-10-28T06:28:37.696Z,35.70
2022-10-28T06:29:37.727Z,33.50
2022-10-28T06:30:37.699Z,33.80
2022-10-28T06:31:37.662Z,34.30
2022-10-28T06:32:37.678Z,35.20
2022-10-28T06:33:37.683Z,34.70
2022-10-28T06:34:37.728Z,33.90
2022-10-28T06:35:37.699Z,33.50
2022-10-28T06:36:37.646Z,34.00
2022-10-28T06:37:37.641Z,33.80
2022-10-28T06:38:37.595Z,35.70
2022-10-28T06:39:37.581Z,36.70
2022-10-28T06:40:37.615Z,34.70
2022-10-28T06:41:37.636Z,34.30
2022-10-28T06:42:37.594Z,36.10
2022-10-28T06:43:37.549Z,38.10
2022-10-28T06:44:37.569Z,36.10
2022-10-28T06:45:37.521Z,36.70
2022-10-28T06:46:39.030Z,38.10
2022-10-28T06:47:41.458Z,36.70
2022-10-28T06:48:39.034Z,36.70
2022-10-28T06:49:39.021Z,38.20
2022-10-28T06:50:38.989Z,36.80
2022-10-28T06:51:38.974Z,37.90
2022-10-28T06:52:39.022Z,36.10
2022-10-28T06:53:38.979Z,38.30
2022-10-28T06:54:39.013Z,37.00
2022-10-28T06:55:38.933Z,36.40
2022-10-28T06:56:38.945Z,37.50
2022-10-28T06:57:38.914Z,38.00
2022-10-28T06:58:39.001Z,38.60
2022-10-28T06:59:38.886Z,38.70
2022-10-28T07:00:38.992Z,36.50
2022-10-28T07:01:38.981Z,37.30
2022-10-28T07:02:42.768Z,37.60
2022-10-28T07:03:38.853Z,36.90
2022-10-28T07:04:38.838Z,37.10
2022-10-28T07:05:38.862Z,37.30
2022-10-28T07:06:39.120Z,36.30
2022-10-28T07:07:38.810Z,37.50
2022-10-28T07:08:38.787Z,34.00
2022-10-28T07:09:38.820Z,34.60
2022-10-28T07:10:38.790Z,34.50
2022-10-28T07:11:38.763Z,36.30
2022-10-28T07:12:38.753Z,33.60
2022-10-28T07:13:38.746Z,35.20
2022-10-28T07:14:38.757Z,33.90
2022-10-28T07:15:38.759Z,35.70
2022-10-28T07:16:38.720Z,36.10
2022-10-28T07:17:38.726Z,34.10
2022-10-28T07:18:38.724Z,34.80
2022-10-28T07:19:38.769Z,32.50
2022-10-28T07:20:38.721Z,32.80
2022-10-28T07:21:38.667Z,33.40
2022-10-28T07:22:38.703Z,33.70
2022-10-28T07:23:38.741Z,33.50
2022-10-28T07:24:38.678Z,31.60
2022-10-28T07:25:38.698Z,33.80
2022-10-28T07:26:38.613Z,30.70
2022-10-28T07:27:38.586Z,32.40
2022-10-28T07:28:38.581Z,31.90
2022-10-28T07:29:38.610Z,32.70
2022-10-28T07:30:38.677Z,31.10
2022-10-28T07:31:38.588Z,31.20
2022-10-28T07:32:38.546Z,28.70
2022-10-28T07:33:38.565Z,31.10
2022-10-28T07:34:38.521Z,28.60
2022-10-28T07:35:38.548Z,30.10
2022-10-28T07:36:38.511Z,30.90
2022-10-28T07:37:38.484Z,28.90
2022-10-28T07:38:38.538Z,28.10
2022-10-28T07:39:38.467Z,29.30
2022-10-28T07:40:38.453Z,28.30
2022-10-28T07:41:38.456Z,28.90
2022-10-28T07:42:38.460Z,28.90
2022-10-28T07:43:38.464Z,28.00
2022-10-28T07:44:38.425Z,27.80
2022-10-28T07:45:38.390Z,27.30
2022-10-28T07:46:38.431Z,28.40
2022-10-28T07:47:38.420Z,28.20
2022-10-28T07:48:38.409Z,27.70
2022-10-28T07:49:38.404Z,27.80
2022-10-28T07:50:38.341Z,28.00
2022-10-28T07:51:38.329Z,25.90
2022-10-28T07:52:38.356Z,25.20
2022-10-28T07:53:38.345Z,27.00
2022-10-28T07:54:38.361Z,25.90
2022-10-28T07:55:38.337Z,26.80
2022-10-28T07:56:38.268Z,26.00
2022-10-28T07:57:38.261Z,26.30
2022-10-28T07:58:38.350Z,25.60
2022-10-28T07:59:38.910Z,27.20
2022-10-28T08:00:38.310Z,25.60
2022-10-28T08:01:38.399Z,26.10
2022-10-28T08:02:38.192Z,23.00
2022-10-28T08:03:39.347Z,25.10
2022-10-28T08:04:38.963Z,24.70
2022-10-28T08:05:38.250Z,23.70
2022-10-28T08:06:38.145Z,24.20
2022-10-28T08:07:38.928Z,23.90
2022-10-28T08:08:38.112Z,22.60
2022-10-28T08:09:38.105Z,22.80
2022-10-28T08:10:38.124Z,23.50
2022-10-28T08:11:38.075Z,22.90
2022-10-28T08:12:38.074Z,23.10
2022-10-28T08:13:40.139Z,23.30
2022-10-28T08:14:38.071Z,24.70
2022-10-28T08:15:38.069Z,24.00
2022-10-28T08:16:38.026Z,23.00
2022-10-28T08:17:38.000Z,22.20
2022-10-28T08:18:38.793Z,22.70
2022-10-28T08:19:38.007Z,22.40
2022-10-28T08:20:38.066Z,21.70
2022-10-28T08:21:37.945Z,21.60
2022-10-28T08:22:37.924Z,21.80
2022-10-28T08:23:38.909Z,20.90
2022-10-28T08:24:37.952Z,20.90
2022-10-28T08:25:37.916Z,20.70
2022-10-28T08:26:37.879Z,20.70
2022-10-28T08:27:37.921Z,21.90
2022-10-28T08:28:37.908Z,20.40
2022-10-28T08:29:37.855Z,20.90
2022-10-28T08:30:56.690Z,20.90
2022-10-28T08:31:37.831Z,19.50
2022-10-28T08:32:37.850Z,20.40
2022-10-28T08:33:37.804Z,20.10
2022-10-28T08:34:40.814Z,20.30
2022-10-28T08:35:37.829Z,20.20
2022-10-28T08:36:37.768Z,20.60
2022-10-28T08:37:38.770Z,20.00
2022-10-28T08:38:41.648Z,20.40
2022-10-28T08:39:37.750Z,18.90
2022-10-28T08:40:37.717Z,19.90
2022-10-28T08:41:37.747Z,19.20
2022-10-28T08:42:37.708Z,19.90
2022-10-28T08:43:52.792Z,18.80
2022-10-28T08:44:37.684Z,18.40
2022-10-28T08:45:37.668Z,19.00
2022-10-28T08:46:37.662Z,18.50
2022-10-28T08:47:37.727Z,17.70
2022-10-28T08:48:37.638Z,17.00
2022-10-28T08:49:37.645Z,17.30
2022-10-28T08:50:37.624Z,17.10
2022-10-28T08:51:37.609Z,16.20
2022-10-28T08:52:37.629Z,16.80
2022-10-28T08:53:37.659Z,17.20
2022-10-28T08:54:37.595Z,16.70
2022-10-28T08:55:37.568Z,16.00
2022-10-28T08:56:37.540Z,14.90
2022-10-28T08:57:37.573Z,14.80
2022-10-28T08:58:37.566Z,15.40
2022-10-28T08:59:37.516Z,15.30
2022-10-28T09:00:37.534Z,14.90
2022-10-28T09:01:37.679Z,14.70
2022-10-28T09:02:37.521Z,15.40
2022-10-28T09:03:39.144Z,14.80
2022-10-28T09:04:37.445Z,14.80
2022-10-28T09:05:37.519Z,14.50
2022-10-28T09:06:37.464Z,14.70
2022-10-28T09:07:37.458Z,13.80
2022-10-28T09:08:37.435Z,13.60
2022-10-28T09:09:37.402Z,13.90
2022-10-28T09:10:37.435Z,14.70
2022-10-28T09:11:39.424Z,14.10
2022-10-28T09:12:37.406Z,13.10
2022-10-28T09:13:37.538Z,13.30
2022-10-28T09:14:37.388Z,13.80
2022-10-28T09:15:37.346Z,13.00
2022-10-28T09:16:37.337Z,13.60
2022-10-28T09:17:37.902Z,13.70
2022-10-28T09:18:37.316Z,13.40
2022-10-28T09:19:37.326Z,12.30
2022-10-28T09:20:37.327Z,12.90
2022-10-28T09:21:37.284Z,12.90
2022-10-28T09:22:37.283Z,13.60
2022-10-28T09:23:37.892Z,13.40
2022-10-28T09:24:37.232Z,12.80
2022-10-28T09:25:37.254Z,12.00
2022-10-28T09:26:37.211Z,13.10
2022-10-28T09:27:37.245Z,12.60
2022-10-28T09:28:37.902Z,12.70
2022-10-28T09:29:39.240Z,12.20
2022-10-28T09:30:37.191Z,12.70
2022-10-28T09:31:37.154Z,13.00
2022-10-28T09:32:37.137Z,12.10
2022-10-28T09:33:37.167Z,11.70
2022-10-28T09:34:37.196Z,11.50
2022-10-28T09:35:37.139Z,11.50
2022-10-28T09:36:37.094Z,11.60
2022-10-28T09:37:37.124Z,11.10
2022-10-28T09:38:37.107Z,11.10
2022-10-28T09:39:37.063Z,11.50
2022-10-28T09:40:37.049Z,11.50
2022-10-28T09:41:37.065Z,11.10
2022-10-28T09:42:37.032Z,11.80
2022-10-28T09:43:37.057Z,10.70
2022-10-28T09:44:37.002Z,10.60
2022-10-28T09:45:37.025Z,9.90
2022-10-28T09:46:37.372Z,10.70
2022-10-28T09:47:37.911Z,9.90
2022-10-28T09:48:37.001Z,10.00
2022-10-28T09:49:36.980Z,9.80
2022-10-28T09:50:36.949Z,10.50
2022-10-28T09:51:36.924Z,9.90
2022-10-28T09:52:36.925Z,9.80
2022-10-28T09:53:36.924Z,9.90
2022-10-28T09:54:36.931Z,10.40
2022-10-28T09:55:36.882Z,10.20
2022-10-28T09:56:36.906Z,9.70
2022-10-28T09:57:36.852Z,9.80
2022-10-28T09:58:36.851Z,9.60
2022-10-28T09:59:36.839Z,10.20
2022-10-28T10:00:37.013Z,9.60
2022-10-28T10:01:36.892Z,9.90
2022-10-28T10:02:36.896Z,10.40
2022-10-28T10:03:37.437Z,9.80
2022-10-28T10:04:36.890Z,9.70
2022-10-28T10:05:36.764Z,9.40
2022-10-28T10:06:36.843Z,9.20
2022-10-28T10:07:36.753Z,9.70
2022-10-28T10:08:36.726Z,8.90
2022-10-28T10:09:37.382Z,8.40
2022-10-28T10:10:36.795Z,9.40
2022-10-28T10:11:36.739Z,9.00
2022-10-28T10:12:36.688Z,8.60
2022-10-28T10:13:36.676Z,8.50
2022-10-28T10:14:36.672Z,8.50
2022-10-28T10:15:37.400Z,8.40
2022-10-28T10:16:36.719Z,8.00
2022-10-28T10:17:36.634Z,8.30
2022-10-28T10:18:36.645Z,8.60
2022-10-28T10:19:36.602Z,8.80
2022-10-28T10:20:36.596Z,8.60
2022-10-28T10:21:36.671Z,8.30
2022-10-28T10:22:36.683Z,8.50
2022-10-28T10:23:36.808Z,8.30
2022-10-28T10:24:36.543Z,8.50
2022-10-28T10:25:36.560Z,8.00
2022-10-28T10:26:36.550Z,8.60
2022-10-28T10:27:36.519Z,8.30
2022-10-28T10:28:36.546Z,7.70
2022-10-28T10:29:36.544Z,8.20
2022-10-28T10:30:36.481Z,8.20
2022-10-28T10:31:36.512Z,8.80
2022-10-28T10:32:36.457Z,7.60
2022-10-28T10:33:36.488Z,7.80
2022-10-28T10:34:36.479Z,7.90
2022-10-28T10:35:36.433Z,8.40
2022-10-28T10:36:36.407Z,8.30
2022-10-28T10:37:36.429Z,7.90
2022-10-28T10:38:36.388Z,8.10
2022-10-28T10:39:37.431Z,7.90
2022-10-28T10:40:36.405Z,8.30
2022-10-28T10:41:36.389Z,8.70
2022-10-28T10:42:42.602Z,8.20
2022-10-28T10:43:36.350Z,7.90
2022-10-28T10:44:36.318Z,8.50
2022-10-28T10:45:36.694Z,8.10
2022-10-28T10:46:36.302Z,8.30
2022-10-28T10:47:36.293Z,7.80
2022-10-28T10:48:36.637Z,8.20
2022-10-28T10:49:36.309Z,8.30
2022-10-28T10:50:36.257Z,8.50
2022-10-28T10:51:38.779Z,8.00
2022-10-28T10:52:36.230Z,8.00
2022-10-28T10:53:36.251Z,8.10
2022-10-28T10:54:37.881Z,8.50
2022-10-28T10:55:36.238Z,8.20
2022-10-28T10:56:36.222Z,8.40
2022-10-28T10:57:36.183Z,8.10
2022-10-28T10:58:36.168Z,8.00
2022-10-28T10:59:36.156Z,8.80
2022-10-28T11:00:36.181Z,8.60
2022-10-28T11:01:36.421Z,8.60
2022-10-28T11:02:37.190Z,7.80
2022-10-28T11:03:36.130Z,8.30
2022-10-28T11:04:36.146Z,8.30
2022-10-28T11:05:38.466Z,8.40
2022-10-28T11:06:36.118Z,7.90
2022-10-28T11:07:36.099Z,8.40
2022-10-28T11:08:36.074Z,8.50
2022-10-28T11:09:36.750Z,8.50
2022-10-28T11:10:36.035Z,8.70
2022-10-28T11:11:36.118Z,8.50
2022-10-28T11:12:36.036Z,8.30
2022-10-28T11:13:35.993Z,8.90
2022-10-28T11:14:35.979Z,8.80
2022-10-28T11:15:36.056Z,8.60
2022-10-28T11:16:35.995Z,8.60
2022-10-28T11:17:36.116Z,8.50
2022-10-28T11:18:35.952Z,8.60
2022-10-28T11:19:35.947Z,8.80
2022-10-28T11:20:35.920Z,8.90
2022-10-28T11:21:35.912Z,8.80
2022-10-28T11:22:42.401Z,8.80
2022-10-28T11:23:35.883Z,8.40
2022-10-28T11:24:35.903Z,8.50
2022-10-28T11:25:35.857Z,8.40
2022-10-28T11:26:35.846Z,7.90
2022-10-28T11:27:35.874Z,9.00
2022-10-28T11:28:35.821Z,8.60
2022-10-28T11:29:35.904Z,8.60
2022-10-28T11:30:35.809Z,8.20
2022-10-28T11:31:35.806Z,8.70
2022-10-28T11:32:41.158Z,8.70
2022-10-28T11:33:36.037Z,8.10
2022-10-28T11:34:35.753Z,8.20
2022-10-28T11:35:35.745Z,8.80
2022-10-28T11:36:35.733Z,8.20
2022-10-28T11:37:35.759Z,8.60
2022-10-28T11:38:35.719Z,7.90
2022-10-28T11:39:35.718Z,8.00
2022-10-28T11:40:35.686Z,8.20
2022-10-28T11:41:35.674Z,7.90
2022-10-28T11:42:35.766Z,8.10
2022-10-28T11:43:35.664Z,8.30
2022-10-28T11:44:35.729Z,8.20
2022-10-28T11:45:35.658Z,7.50
2022-10-28T11:46:35.656Z,7.90
2022-10-28T11:47:35.600Z,8.10
2022-10-28T11:48:35.593Z,8.00
2022-10-28T11:49:35.591Z,8.00
2022-10-28T11:50:35.563Z,7.60
2022-10-28T11:51:35.579Z,7.80
2022-10-28T11:52:39.010Z,7.80
2022-10-28T11:53:35.551Z,7.50
2022-10-28T11:54:35.582Z,7.60
2022-10-28T11:55:35.529Z,7.90
2022-10-28T11:56:35.509Z,7.30
2022-10-28T11:57:35.498Z,7.50
2022-10-28T11:58:35.485Z,7.90
2022-10-28T11:59:35.528Z,7.70
2022-10-28T12:00:35.495Z,7.80
2022-10-28T12:01:35.572Z,8.00
2022-10-28T12:02:35.501Z,8.30
2022-10-28T12:03:35.490Z,7.70
2022-10-28T12:04:35.453Z,7.90
2022-10-28T12:05:35.407Z,7.80
2022-10-28T12:06:35.911Z,7.40
2022-10-28T12:07:35.398Z,8.00
2022-10-28T12:08:35.395Z,7.70
2022-10-28T12:09:35.416Z,7.90
2022-10-28T12:10:35.386Z,6.90
2022-10-28T12:11:35.346Z,8.00
2022-10-28T12:12:36.345Z,7.80
2022-10-28T12:13:35.323Z,7.30
2022-10-28T12:14:35.353Z,7.90
2022-10-28T12:15:35.329Z,7.50
2022-10-28T12:16:35.289Z,7.40
2022-10-28T12:17:35.296Z,8.10
2022-10-28T12:18:35.260Z,7.80
2022-10-28T12:19:35.295Z,7.60
2022-10-28T12:20:35.275Z,7.50
2022-10-28T12:22:35.208Z,7.90
2022-10-28T12:23:35.244Z,7.50
2022-10-28T12:24:35.223Z,7.50
2022-10-28T12:25:35.291Z,7.70
2022-10-28T12:26:35.185Z,8.20
2022-10-28T12:27:35.185Z,7.80
2022-10-28T12:28:41.172Z,7.80
2022-10-28T12:29:35.209Z,7.80
2022-10-28T12:30:35.145Z,7.80
2022-10-28T12:31:35.097Z,7.50
2022-10-28T12:32:35.111Z,7.50
2022-10-28T12:33:35.098Z,6.90
2022-10-28T12:35:35.082Z,7.00
2022-10-28T12:36:35.101Z,7.10
2022-10-28T12:37:35.058Z,6.80
2022-10-28T12:38:35.049Z,6.60
2022-10-28T12:39:35.068Z,6.80
2022-10-28T12:40:35.007Z,7.00
2022-10-28T12:41:35.065Z,6.80
2022-10-28T12:42:34.991Z,7.10
2022-10-28T12:43:34.971Z,6.60
2022-10-28T12:44:35.051Z,6.70
2022-10-28T12:45:34.945Z,6.80
2022-10-28T12:46:34.965Z,7.00
2022-10-28T12:47:37.805Z,6.60
2022-10-28T12:48:35.907Z,6.50
2022-10-28T12:49:35.059Z,6.60
2022-10-28T12:50:34.891Z,6.50
2022-10-28T12:51:34.875Z,7.20
2022-10-28T12:52:34.870Z,6.60
2022-10-28T12:53:34.856Z,7.00
2022-10-28T12:54:34.883Z,6.60
2022-10-28T12:55:34.868Z,7.10
2022-10-28T12:56:34.899Z,7.00
2022-10-28T12:57:34.826Z,7.00
2022-10-28T12:58:34.813Z,7.40
2022-10-28T12:59:34.824Z,6.50
2022-10-28T13:00:34.816Z,6.80